Flugplatz - Wetter - Augsburg

[Quelle: ADDS]
METAR
EDMA 242350Z AUTO VRB02KT 9999 // OVC130/// 11/09 Q1014 =
EDMA 241700Z 2418/2503 VRB03KT CAVOK
TAF
EDMA 241700Z 2418/2503 VRB03KT CAVOK =
SR / SS: 03:27 / 19:02 UTC (Augsburg 2019-05-25)

Flugplatz - Wetter - Laupheim

[Quelle: ADDS]
METAR
ETHL 242320Z AUTO 20002KT 5000 // ////// 13/09 Q1015 /// =
TAF
SR / SS: 03:31 / 19:05 UTC (Laupheim 2019-05-25)

Flugplatz - Wetter - Memmingen

[Quelle: ADDS]
METAR
EDJA 241950Z VRB02KT CAVOK 15/10 Q1015 =
EDJA 241700Z 2418/2503 VRB03KT CAVOK
TAF
EDJA 241700Z 2418/2503 VRB03KT CAVOK =
SR / SS: 03:31 / 19:01 UTC (Memmingen 2019-05-25)

Flugplatz - Wetter - Neuburg/Donau

[Quelle: ADDS]
METAR
ETSN 242320Z 20001KT 9999 BKN120 BKN280 13/09 Q1014 BLACKBLU =
TAF
SR / SS: 03:24 / 19:00 UTC (Neuburg 2019-05-25)

Flugplatz - Wetter - Stuttgart

[Quelle: ADDS]
METAR
EDDS 242350Z VRB01KT CAVOK 12/10 Q1014 =
EDDS 242300Z 2500/2524 VRB02KT CAVOK BECMG 2508/2511 33005KT TEMPO 2511/2519 32015G25KT TSRA BKN030CB PROB30 TEMPO 2513/2517 4000 TSRAGR BECMG 2518/2520 VRB03KT
TAF
EDDS 242300Z 2500/2524 VRB02KT CAVOK BECMG 2508/2511 33005KT TEMPO 2511/2519 32015G25KT TSRA BKN030CB PROB30 TEMPO 2513/2517 4000 TSRAGR BECMG 2518/2520 VRB03KT =
SR / SS: 03:32 / 19:08 UTC (Stuttgart 2019-05-25)

Flugplatz - Wetter - Niederstetten

[Quelle: ADDS]
METAR
ETHN 242320Z AUTO 00000KT 9999 // ////// 13/08 Q1015 /// =
TAF
SR / SS: 03:26 / 19:10 UTC (Niederstetten 2019-05-25)